createdAt,value
2023-05-10T00:00:31.432Z,232.21
2023-05-10T00:01:31.508Z,233.73
2023-05-10T00:02:31.511Z,232.97
2023-05-10T00:03:31.485Z,228.36
2023-05-10T00:04:31.475Z,226.98
2023-05-10T00:05:31.523Z,228.24
2023-05-10T00:06:31.509Z,225.51
2023-05-10T00:07:31.485Z,224.87
2023-05-10T00:08:31.496Z,226.51
2023-05-10T00:09:31.510Z,228.50
2023-05-10T00:10:31.528Z,229.50
2023-05-10T00:11:31.618Z,229.88
2023-05-10T00:12:31.549Z,229.12
2023-05-10T00:13:31.604Z,228.09
2023-05-10T00:14:31.608Z,228.08
2023-05-10T00:15:31.621Z,229.15
2023-05-10T00:16:31.684Z,231.27
2023-05-10T00:17:31.629Z,229.38
2023-05-10T00:18:31.592Z,227.80
2023-05-10T00:19:31.627Z,225.29
2023-05-10T00:20:31.637Z,226.80
2023-05-10T00:21:31.639Z,229.17
2023-05-10T00:22:31.643Z,230.34
2023-05-10T00:23:31.659Z,228.74
2023-05-10T00:24:31.699Z,224.36
2023-05-10T00:25:31.688Z,224.53
2023-05-10T00:26:31.717Z,227.21
2023-05-10T00:27:31.795Z,227.01
2023-05-10T00:28:31.721Z,230.49
2023-05-10T00:29:31.742Z,227.09
2023-05-10T00:30:31.739Z,227.64
2023-05-10T00:31:31.804Z,228.90
2023-05-10T00:32:31.843Z,229.50
2023-05-10T00:33:31.836Z,227.92
2023-05-10T00:34:31.821Z,228.33
2023-05-10T00:35:31.841Z,230.70
2023-05-10T00:36:31.851Z,225.01
2023-05-10T00:37:31.896Z,225.42
2023-05-10T00:38:31.883Z,223.40
2023-05-10T00:39:31.893Z,228.26
2023-05-10T00:40:31.926Z,227.27
2023-05-10T00:41:31.921Z,224.76
2023-05-10T00:42:31.933Z,223.83
2023-05-10T00:43:32.012Z,224.28
2023-05-10T00:44:31.994Z,222.67
2023-05-10T00:45:31.976Z,223.39
2023-05-10T00:46:32.047Z,221.35
2023-05-10T00:47:32.046Z,222.64
2023-05-10T00:48:32.046Z,224.74
2023-05-10T00:49:32.029Z,221.58
2023-05-10T00:50:32.066Z,220.00
2023-05-10T00:51:32.058Z,216.63
2023-05-10T00:52:32.115Z,216.79
2023-05-10T00:53:32.126Z,217.56
2023-05-10T00:54:32.112Z,216.69
2023-05-10T00:55:32.122Z,216.53
2023-05-10T00:56:32.156Z,215.07
2023-05-10T00:57:32.134Z,218.68
2023-05-10T00:58:32.203Z,219.61
2023-05-10T00:59:32.248Z,218.31
2023-05-10T01:00:32.184Z,215.22
2023-05-10T01:01:32.276Z,217.87
2023-05-10T01:02:32.313Z,218.16
2023-05-10T01:03:32.277Z,219.92
2023-05-10T01:04:32.264Z,218.07
2023-05-10T01:05:32.267Z,219.30
2023-05-10T01:06:32.280Z,221.34
2023-05-10T01:07:32.277Z,223.00
2023-05-10T01:08:32.353Z,221.85
2023-05-10T01:09:32.327Z,223.85
2023-05-10T01:10:32.336Z,221.82
2023-05-10T01:11:32.362Z,220.94
2023-05-10T01:12:32.501Z,217.70
2023-05-10T01:13:32.442Z,216.08
2023-05-10T01:14:32.453Z,216.25
2023-05-10T01:15:32.477Z,214.26
2023-05-10T01:16:32.592Z,218.11
2023-05-10T01:17:32.555Z,218.25
2023-05-10T01:18:32.559Z,220.41
2023-05-10T01:19:32.556Z,219.92
2023-05-10T01:20:32.595Z,221.97
2023-05-10T01:21:32.671Z,223.20
2023-05-10T01:22:32.646Z,225.32
2023-05-10T01:23:32.682Z,222.03
2023-05-10T01:24:32.684Z,222.23
2023-05-10T01:25:32.725Z,224.61
2023-05-10T01:26:32.741Z,222.97
2023-05-10T01:27:32.775Z,231.64
2023-05-10T01:28:32.808Z,228.63
2023-05-10T01:29:32.816Z,226.95
2023-05-10T01:30:32.849Z,226.16
2023-05-10T01:31:32.909Z,223.05
2023-05-10T01:32:32.928Z,221.39
2023-05-10T01:33:32.929Z,219.94
2023-05-10T01:34:32.929Z,219.39
2023-05-10T01:35:32.967Z,215.80
2023-05-10T01:36:32.973Z,217.31
2023-05-10T01:37:33.026Z,213.72
2023-05-10T01:38:33.038Z,214.82
2023-05-10T01:39:33.072Z,215.98
2023-05-10T01:40:33.090Z,216.08
2023-05-10T01:41:33.121Z,213.19
2023-05-10T01:42:33.159Z,211.02
2023-05-10T01:43:33.161Z,206.85
2023-05-10T01:44:33.205Z,207.13
2023-05-10T01:45:33.210Z,203.88
2023-05-10T01:46:33.261Z,206.10
2023-05-10T01:47:33.269Z,206.54
2023-05-10T01:48:33.295Z,203.37
2023-05-10T01:49:33.304Z,202.82
2023-05-10T01:50:33.373Z,201.70
2023-05-10T01:51:33.405Z,206.29
2023-05-10T01:52:33.394Z,209.07
2023-05-10T01:53:33.411Z,205.52
2023-05-10T01:54:33.425Z,205.61
2023-05-10T01:55:33.465Z,204.65
2023-05-10T01:56:33.506Z,203.48
2023-05-10T01:57:33.531Z,202.82
2023-05-10T01:58:33.552Z,203.95
2023-05-10T01:59:33.582Z,204.15
2023-05-10T02:00:33.616Z,202.38
2023-05-10T02:01:33.631Z,201.68
2023-05-10T02:02:33.687Z,206.37
2023-05-10T02:03:33.701Z,201.94
2023-05-10T02:04:33.713Z,205.40
2023-05-10T02:05:33.734Z,205.93
2023-05-10T02:06:33.776Z,204.88
2023-05-10T02:07:33.797Z,206.37
2023-05-10T02:08:33.833Z,205.34
2023-05-10T02:09:33.856Z,205.93
2023-05-10T02:10:33.881Z,204.53
2023-05-10T02:11:33.899Z,211.03
2023-05-10T02:12:33.935Z,208.65
2023-05-10T02:13:33.969Z,209.10
2023-05-10T02:14:33.997Z,206.10
2023-05-10T02:15:34.018Z,208.97
2023-05-10T02:16:34.098Z,207.67
2023-05-10T02:17:34.113Z,208.52
2023-05-10T02:18:34.130Z,205.81
2023-05-10T02:19:34.160Z,202.62
2023-05-10T02:20:34.187Z,203.59
2023-05-10T02:21:34.251Z,198.46
2023-05-10T02:22:34.241Z,199.75
2023-05-10T02:23:34.282Z,197.74
2023-05-10T02:24:34.342Z,195.55
2023-05-10T02:25:34.368Z,198.41
2023-05-10T02:26:34.395Z,196.44
2023-05-10T02:27:34.406Z,194.62
2023-05-10T02:28:34.469Z,192.43
2023-05-10T02:29:34.509Z,190.77
2023-05-10T02:30:34.530Z,187.76
2023-05-10T02:31:34.646Z,196.40
2023-05-10T02:32:34.622Z,191.15
2023-05-10T02:33:34.625Z,194.47
2023-05-10T02:34:34.672Z,190.98
2023-05-10T02:35:34.695Z,191.94
2023-05-10T02:36:34.730Z,190.17
2023-05-10T02:37:34.759Z,191.02
2023-05-10T02:38:34.793Z,191.64
2023-05-10T02:39:34.856Z,193.61
2023-05-10T02:40:34.876Z,195.44
2023-05-10T02:41:34.910Z,193.21
2023-05-10T02:42:34.937Z,193.39
2023-05-10T02:43:34.972Z,193.56
2023-05-10T02:44:35.007Z,191.58
2023-05-10T02:45:35.077Z,187.10
2023-05-10T02:46:35.181Z,186.61
2023-05-10T02:47:35.173Z,189.85
2023-05-10T02:48:35.168Z,190.53
2023-05-10T02:49:35.195Z,187.00
2023-05-10T02:50:35.217Z,187.16
2023-05-10T02:51:35.319Z,190.73
2023-05-10T02:52:35.263Z,191.20
2023-05-10T02:53:35.328Z,188.77
2023-05-10T02:54:35.359Z,189.86
2023-05-10T02:55:35.358Z,185.16
2023-05-10T02:56:35.417Z,186.82
2023-05-10T02:57:35.470Z,188.73
2023-05-10T02:58:35.478Z,188.49
2023-05-10T02:59:35.494Z,188.57
2023-05-10T03:00:35.531Z,190.32
2023-05-10T03:01:35.583Z,190.89
2023-05-10T03:02:35.618Z,185.39
2023-05-10T03:03:35.638Z,190.77
2023-05-10T03:04:35.714Z,188.52
2023-05-10T03:05:35.710Z,185.35
2023-05-10T03:06:35.751Z,184.92
2023-05-10T03:07:35.773Z,185.82
2023-05-10T03:08:35.817Z,185.05
2023-05-10T03:09:35.834Z,187.74
2023-05-10T03:10:35.878Z,190.02
2023-05-10T03:11:35.912Z,187.85
2023-05-10T03:12:35.945Z,191.25
2023-05-10T03:13:36.005Z,183.09
2023-05-10T03:14:35.979Z,182.96
2023-05-10T03:15:36.030Z,183.52
2023-05-10T03:16:36.084Z,183.95
2023-05-10T03:17:36.149Z,186.00
2023-05-10T03:18:36.131Z,189.11
2023-05-10T03:19:36.226Z,188.82
2023-05-10T03:20:36.243Z,186.13
2023-05-10T03:21:36.325Z,185.56
2023-05-10T03:22:36.306Z,186.07
2023-05-10T03:23:36.294Z,187.70
2023-05-10T03:24:36.360Z,186.13
2023-05-10T03:25:36.348Z,185.48
2023-05-10T03:26:36.373Z,185.02
2023-05-10T03:27:36.397Z,186.27
2023-05-10T03:28:36.435Z,190.84
2023-05-10T03:29:36.477Z,190.25
2023-05-10T03:30:36.513Z,190.36
2023-05-10T03:31:36.581Z,192.59
2023-05-10T03:32:36.617Z,193.69
2023-05-10T03:33:36.612Z,190.95
2023-05-10T03:34:36.631Z,194.50
2023-05-10T03:35:36.665Z,194.98
2023-05-10T03:36:36.716Z,199.76
2023-05-10T03:37:36.763Z,202.14
2023-05-10T03:38:36.779Z,196.61
2023-05-10T03:39:36.813Z,198.01
2023-05-10T03:40:36.845Z,201.50
2023-05-10T03:41:36.892Z,197.32
2023-05-10T03:42:36.916Z,196.78
2023-05-10T03:43:36.994Z,197.18
2023-05-10T03:44:37.010Z,198.13
2023-05-10T03:45:37.041Z,197.53
2023-05-10T03:46:37.121Z,196.37
2023-05-10T03:47:37.105Z,200.59
2023-05-10T03:48:37.192Z,201.68
2023-05-10T03:49:37.187Z,201.66
2023-05-10T03:50:37.237Z,194.28
2023-05-10T03:51:37.347Z,193.38
2023-05-10T03:52:37.298Z,193.35
2023-05-10T03:53:37.320Z,193.06
2023-05-10T03:54:37.380Z,192.43
2023-05-10T03:55:37.453Z,189.49
2023-05-10T03:56:37.452Z,185.96
2023-05-10T03:57:37.460Z,188.13
2023-05-10T03:58:37.504Z,186.66
2023-05-10T03:59:37.534Z,186.18
2023-05-10T04:00:37.576Z,187.13
2023-05-10T04:01:37.672Z,180.22
2023-05-10T04:02:38.450Z,189.47
2023-05-10T04:03:38.010Z,189.80
2023-05-10T04:04:37.804Z,186.20
2023-05-10T04:05:37.794Z,181.76
2023-05-10T04:06:37.857Z,177.95
2023-05-10T04:07:37.892Z,173.06
2023-05-10T04:08:37.911Z,172.60
2023-05-10T04:09:37.959Z,175.48
2023-05-10T04:10:38.029Z,170.81
2023-05-10T04:11:38.056Z,180.07
2023-05-10T04:12:38.058Z,172.39
2023-05-10T04:13:38.097Z,171.66
2023-05-10T04:14:38.147Z,171.33
2023-05-10T04:15:38.188Z,177.81
2023-05-10T04:16:38.286Z,177.89
2023-05-10T04:17:38.312Z,178.60
2023-05-10T04:18:38.297Z,177.61
2023-05-10T04:19:38.384Z,176.02
2023-05-10T04:20:38.384Z,176.47
2023-05-10T04:21:38.438Z,175.64
2023-05-10T04:22:38.465Z,179.37
2023-05-10T04:23:38.510Z,180.88
2023-05-10T04:24:38.536Z,180.48
2023-05-10T04:25:38.604Z,182.15
2023-05-10T04:26:38.619Z,187.85
2023-05-10T04:27:38.698Z,184.40
2023-05-10T04:28:38.704Z,181.10
2023-05-10T04:29:38.735Z,179.41
2023-05-10T04:30:38.789Z,176.24
2023-05-10T04:31:38.815Z,177.71
2023-05-10T04:32:38.911Z,172.09
2023-05-10T04:33:38.886Z,176.50
2023-05-10T04:34:38.930Z,175.21
2023-05-10T04:35:38.976Z,173.42
2023-05-10T04:36:39.008Z,176.61
2023-05-10T04:37:39.056Z,173.66
2023-05-10T04:38:39.157Z,176.42
2023-05-10T04:39:40.935Z,170.81
2023-05-10T04:40:39.125Z,177.61
2023-05-10T04:41:39.203Z,177.17
2023-05-10T04:42:39.112Z,177.19
2023-05-10T04:43:39.297Z,179.57
2023-05-10T04:44:39.172Z,183.29
2023-05-10T04:45:39.101Z,186.38
2023-05-10T04:46:39.117Z,185.43
2023-05-10T04:47:39.136Z,185.43
2023-05-10T04:48:39.073Z,189.39
2023-05-10T04:49:39.075Z,190.03
2023-05-10T04:50:39.070Z,189.60
2023-05-10T04:51:39.053Z,192.69
2023-05-10T04:52:39.059Z,196.15
2023-05-10T04:53:39.046Z,193.85
2023-05-10T04:54:39.022Z,194.13
2023-05-10T04:55:39.045Z,196.71
2023-05-10T04:56:39.025Z,198.32
2023-05-10T04:57:39.014Z,200.79
2023-05-10T04:58:39.007Z,196.18
2023-05-10T04:59:39.003Z,197.90
2023-05-10T05:00:38.997Z,196.69
2023-05-10T05:01:39.031Z,199.20
2023-05-10T05:02:39.031Z,198.33
2023-05-10T05:03:39.147Z,202.01
2023-05-10T05:04:38.979Z,201.39
2023-05-10T05:05:38.960Z,201.35
2023-05-10T05:06:38.958Z,203.68
2023-05-10T05:07:38.952Z,201.69
2023-05-10T05:08:38.931Z,208.72
2023-05-10T05:09:38.938Z,212.74
2023-05-10T05:10:38.914Z,212.55
2023-05-10T05:11:38.911Z,217.91
2023-05-10T05:12:38.910Z,220.41
2023-05-10T05:13:38.891Z,219.46
2023-05-10T05:14:38.921Z,217.65
2023-05-10T05:15:38.876Z,216.40
2023-05-10T05:16:38.938Z,213.91
2023-05-10T05:17:38.878Z,214.58
2023-05-10T05:18:38.886Z,215.31
2023-05-10T05:19:38.863Z,214.17
2023-05-10T05:20:38.849Z,211.81
2023-05-10T05:21:38.834Z,213.17
2023-05-10T05:22:38.818Z,215.28
2023-05-10T05:23:38.843Z,218.94
2023-05-10T05:24:38.809Z,222.10
2023-05-10T05:25:38.805Z,226.18
2023-05-10T05:26:38.825Z,222.89
2023-05-10T05:27:38.813Z,229.69
2023-05-10T05:28:38.794Z,229.86
2023-05-10T05:29:38.782Z,228.14
2023-05-10T05:30:38.790Z,235.12
2023-05-10T05:31:38.886Z,229.56
2023-05-10T05:32:38.872Z,239.26
2023-05-10T05:33:38.908Z,249.79
2023-05-10T05:34:38.929Z,249.61
2023-05-10T05:35:38.967Z,250.00
2023-05-10T05:36:39.023Z,249.56
2023-05-10T05:37:39.033Z,250.00
2023-05-10T05:38:39.051Z,245.73
2023-05-10T05:39:39.086Z,250.00
2023-05-10T05:40:39.079Z,250.00
2023-05-10T05:41:39.117Z,250.08
2023-05-10T05:42:39.140Z,250.46
2023-05-10T05:43:39.142Z,250.00
2023-05-10T05:44:39.159Z,248.91
2023-05-10T05:45:39.189Z,249.92
2023-05-10T05:46:39.158Z,249.95
2023-05-10T05:47:39.188Z,250.00
2023-05-10T05:48:39.176Z,249.76
2023-05-10T05:49:39.651Z,250.00
2023-05-10T05:50:39.172Z,250.00
2023-05-10T05:51:39.195Z,249.58
2023-05-10T05:52:39.190Z,249.60
2023-05-10T05:53:39.164Z,250.00
2023-05-10T05:54:39.174Z,249.51
2023-05-10T05:55:39.179Z,249.70
2023-05-10T05:56:39.190Z,250.00
2023-05-10T05:57:39.210Z,249.79
2023-05-10T05:58:39.268Z,246.68
2023-05-10T05:59:39.255Z,227.16
2023-05-10T06:00:39.276Z,197.54
2023-05-10T06:01:39.251Z,183.09
2023-05-10T06:02:39.378Z,182.51
2023-05-10T06:03:39.578Z,182.17
2023-05-10T06:04:39.408Z,176.08
2023-05-10T06:05:39.417Z,175.55
2023-05-10T06:06:39.418Z,172.37
2023-05-10T06:07:39.436Z,170.01
2023-05-10T06:08:39.447Z,187.03
2023-05-10T06:09:39.552Z,195.61
2023-05-10T06:10:39.501Z,199.26
2023-05-10T06:11:39.488Z,203.35
2023-05-10T06:12:39.501Z,209.19
2023-05-10T06:13:39.514Z,215.30
2023-05-10T06:14:39.681Z,218.34
2023-05-10T06:15:39.625Z,224.57
2023-05-10T06:16:39.712Z,227.98
2023-05-10T06:17:39.832Z,227.81
2023-05-10T06:18:39.746Z,226.64
2023-05-10T06:19:40.174Z,228.27
2023-05-10T06:20:39.789Z,232.03
2023-05-10T06:21:39.829Z,234.97
2023-05-10T06:22:39.791Z,235.94
2023-05-10T06:23:39.793Z,236.93
2023-05-10T06:24:39.803Z,236.47
2023-05-10T06:25:39.824Z,237.30
2023-05-10T06:26:39.811Z,239.39
2023-05-10T06:27:39.791Z,242.83
2023-05-10T06:28:39.813Z,246.50
2023-05-10T06:29:39.817Z,246.58
2023-05-10T06:30:40.176Z,247.50
2023-05-10T06:31:39.937Z,246.70
2023-05-10T06:32:39.961Z,249.04
2023-05-10T06:33:39.972Z,250.00
2023-05-10T06:34:40.203Z,249.75
2023-05-10T06:35:40.079Z,246.17
2023-05-10T06:36:40.089Z,247.70
2023-05-10T06:37:40.158Z,249.57
2023-05-10T06:38:40.217Z,249.03
2023-05-10T06:39:40.691Z,249.63
2023-05-10T06:40:40.316Z,249.53
2023-05-10T06:41:40.413Z,249.31
2023-05-10T06:42:40.445Z,250.00
2023-05-10T06:43:40.498Z,250.00
2023-05-10T06:44:40.531Z,248.68
2023-05-10T06:45:40.626Z,249.02
2023-05-10T06:46:40.644Z,250.00
2023-05-10T06:47:40.722Z,250.00
2023-05-10T06:48:41.178Z,248.99
2023-05-10T06:49:40.805Z,248.58
2023-05-10T06:50:40.857Z,249.96
2023-05-10T06:51:40.894Z,249.24
2023-05-10T06:52:40.986Z,248.98
2023-05-10T06:53:40.986Z,247.68
2023-05-10T06:54:41.034Z,247.05
2023-05-10T06:55:41.114Z,247.99
2023-05-10T06:56:41.193Z,247.57
2023-05-10T06:57:41.214Z,247.14
2023-05-10T06:58:41.226Z,247.03
2023-05-10T06:59:41.247Z,247.77
2023-05-10T07:00:41.363Z,246.12
2023-05-10T07:01:41.387Z,246.39
2023-05-10T07:02:41.397Z,245.48
2023-05-10T07:03:41.429Z,247.00
2023-05-10T07:04:41.521Z,246.14
2023-05-10T07:05:41.570Z,244.41
2023-05-10T07:06:41.541Z,246.40
2023-05-10T07:07:41.585Z,245.22
2023-05-10T07:08:41.624Z,246.28
2023-05-10T07:09:41.706Z,247.03
2023-05-10T07:10:41.717Z,247.07
2023-05-10T07:11:41.758Z,247.28
2023-05-10T07:12:41.875Z,245.62
2023-05-10T07:13:41.861Z,247.28
2023-05-10T07:14:42.217Z,247.31
2023-05-10T07:15:41.891Z,247.18
2023-05-10T07:16:41.996Z,247.99
2023-05-10T07:17:43.380Z,248.38
2023-05-10T07:18:42.043Z,248.25
2023-05-10T07:19:41.962Z,247.61
2023-05-10T07:20:41.941Z,249.39
2023-05-10T07:21:41.953Z,247.46
2023-05-10T07:22:41.926Z,248.74
2023-05-10T07:23:43.686Z,249.71
2023-05-10T07:24:41.927Z,247.10
2023-05-10T07:25:41.957Z,247.00
2023-05-10T07:26:42.263Z,242.75
2023-05-10T07:27:41.897Z,245.40
2023-05-10T07:28:41.888Z,245.49
2023-05-10T07:29:41.914Z,238.67
2023-05-10T07:30:41.905Z,231.65
2023-05-10T07:31:42.205Z,237.60
2023-05-10T07:32:41.887Z,246.19
2023-05-10T07:33:41.847Z,250.00
2023-05-10T07:34:41.858Z,249.31
2023-05-10T07:35:41.850Z,250.50
2023-05-10T07:36:41.825Z,249.20
2023-05-10T07:37:41.821Z,250.00
2023-05-10T07:38:41.830Z,248.17
2023-05-10T07:39:41.839Z,247.72
2023-05-10T07:40:41.798Z,244.81
2023-05-10T07:41:41.804Z,250.00
2023-05-10T07:42:41.788Z,238.52
2023-05-10T07:43:41.797Z,243.39
2023-05-10T07:44:41.809Z,243.95
2023-05-10T07:45:41.776Z,241.15
2023-05-10T07:46:41.799Z,239.88
2023-05-10T07:47:41.804Z,243.96
2023-05-10T07:48:41.737Z,249.72
2023-05-10T07:49:42.205Z,246.93
2023-05-10T07:50:41.722Z,223.12
2023-05-10T07:51:41.727Z,226.76
2023-05-10T07:52:41.720Z,228.00
2023-05-10T07:53:41.701Z,217.71
2023-05-10T07:54:42.194Z,217.29
2023-05-10T07:55:41.718Z,214.81
2023-05-10T07:56:41.696Z,219.41
2023-05-10T07:57:41.669Z,219.10
2023-05-10T07:58:41.689Z,210.96
2023-05-10T07:59:41.691Z,206.01
2023-05-10T08:00:41.656Z,201.70
2023-05-10T08:01:41.642Z,200.43
2023-05-10T08:02:41.690Z,198.14
2023-05-10T08:03:41.707Z,196.62
2023-05-10T08:04:41.753Z,195.74
2023-05-10T08:05:41.665Z,195.31
2023-05-10T08:06:41.755Z,196.03
2023-05-10T08:07:41.606Z,196.63
2023-05-10T08:08:41.648Z,197.67
2023-05-10T08:09:41.672Z,196.78
2023-05-10T08:10:41.608Z,193.45
2023-05-10T08:11:41.608Z,193.22
2023-05-10T08:12:41.578Z,192.24
2023-05-10T08:13:41.658Z,189.75
2023-05-10T08:14:41.742Z,189.85
2023-05-10T08:15:41.604Z,186.62
2023-05-10T08:16:41.614Z,183.45
2023-05-10T08:17:41.733Z,183.50
2023-05-10T08:18:41.758Z,183.45
2023-05-10T08:19:42.211Z,187.05
2023-05-10T08:20:42.214Z,185.63
2023-05-10T08:21:41.908Z,185.23
2023-05-10T08:22:41.941Z,170.43
2023-05-10T08:23:41.983Z,172.30
2023-05-10T08:24:42.101Z,175.73
2023-05-10T08:25:42.112Z,177.86
2023-05-10T08:26:42.153Z,175.24
2023-05-10T08:27:42.203Z,171.57
2023-05-10T08:28:42.285Z,171.07
2023-05-10T08:29:50.182Z,171.49
2023-05-10T08:30:43.317Z,171.61
2023-05-10T08:31:42.347Z,172.00
2023-05-10T08:32:42.366Z,172.47
2023-05-10T08:33:44.433Z,174.50
2023-05-10T08:34:42.349Z,180.05
2023-05-10T08:35:42.726Z,179.99
2023-05-10T08:36:42.466Z,168.17
2023-05-10T08:37:42.516Z,167.25
2023-05-10T08:38:42.630Z,174.87
2023-05-10T08:39:42.648Z,178.89
2023-05-10T08:40:42.729Z,185.88
2023-05-10T08:41:42.719Z,182.91
2023-05-10T08:42:42.801Z,180.73
2023-05-10T08:43:42.955Z,180.00
2023-05-10T08:44:42.879Z,178.03
2023-05-10T08:45:43.220Z,182.53
2023-05-10T08:46:42.964Z,183.01
2023-05-10T08:47:42.980Z,183.96
2023-05-10T08:48:43.006Z,189.12
2023-05-10T08:49:43.047Z,190.08
2023-05-10T08:50:43.225Z,191.69
2023-05-10T08:51:43.954Z,190.87
2023-05-10T08:52:43.156Z,192.66
2023-05-10T08:53:43.186Z,204.89
2023-05-10T08:54:43.195Z,209.51
2023-05-10T08:55:43.254Z,193.24
2023-05-10T08:56:43.274Z,194.57
2023-05-10T08:57:43.318Z,183.44
2023-05-10T08:58:43.345Z,176.88
2023-05-10T08:59:43.390Z,186.92
2023-05-10T09:00:43.479Z,191.21
2023-05-10T09:01:43.453Z,190.69
2023-05-10T09:02:43.577Z,190.45
2023-05-10T09:03:43.545Z,193.88
2023-05-10T09:04:43.610Z,194.26
2023-05-10T09:05:43.748Z,196.79
2023-05-10T09:06:43.601Z,195.05
2023-05-10T09:07:43.630Z,197.00
2023-05-10T09:08:43.656Z,196.80
2023-05-10T09:09:43.687Z,196.59
2023-05-10T09:10:43.724Z,198.07
2023-05-10T09:11:43.768Z,198.54
2023-05-10T09:12:43.766Z,197.70
2023-05-10T09:13:43.794Z,200.75
2023-05-10T09:14:43.803Z,201.64
2023-05-10T09:15:44.250Z,202.49
2023-05-10T09:16:43.915Z,200.34
2023-05-10T09:17:43.963Z,196.32
2023-05-10T09:18:43.908Z,200.04
2023-05-10T09:19:43.892Z,198.20
2023-05-10T09:20:44.229Z,197.08
2023-05-10T09:21:43.914Z,199.71
2023-05-10T09:22:43.952Z,196.11
2023-05-10T09:23:44.717Z,198.53
2023-05-10T09:24:43.981Z,193.84
2023-05-10T09:25:44.250Z,195.87
2023-05-10T09:26:44.043Z,179.40
2023-05-10T09:27:44.076Z,167.53
2023-05-10T09:28:44.076Z,170.22
2023-05-10T09:29:44.106Z,169.80
2023-05-10T09:30:44.286Z,163.61
2023-05-10T09:31:44.193Z,159.60
2023-05-10T09:32:44.273Z,161.16
2023-05-10T09:33:44.272Z,164.22
2023-05-10T09:34:44.299Z,167.52
2023-05-10T09:35:44.745Z,163.03
2023-05-10T09:36:44.378Z,158.10
2023-05-10T09:37:44.451Z,154.68
2023-05-10T09:38:44.493Z,160.66
2023-05-10T09:39:44.519Z,160.88
2023-05-10T09:40:44.751Z,150.44
2023-05-10T09:41:44.595Z,142.41
2023-05-10T09:42:44.670Z,138.50
2023-05-10T09:43:44.686Z,133.51
2023-05-10T09:44:44.751Z,138.74
2023-05-10T09:45:45.262Z,136.43
2023-05-10T09:46:44.794Z,125.99
2023-05-10T09:47:44.889Z,146.26
2023-05-10T09:48:44.852Z,140.96
2023-05-10T09:49:44.912Z,150.91
2023-05-10T09:50:44.921Z,153.76
2023-05-10T09:51:44.968Z,152.70
2023-05-10T09:52:44.967Z,163.43
2023-05-10T09:53:45.014Z,157.70
2023-05-10T09:54:45.049Z,155.25
2023-05-10T09:55:45.064Z,158.47
2023-05-10T09:56:45.087Z,166.39
2023-05-10T09:57:45.094Z,166.98
2023-05-10T09:58:45.150Z,156.39
2023-05-10T09:59:45.143Z,155.24
2023-05-10T10:00:45.197Z,159.38
2023-05-10T10:01:45.283Z,170.51
2023-05-10T10:02:45.303Z,165.22
2023-05-10T10:03:45.291Z,157.67
2023-05-10T10:04:45.293Z,154.53
2023-05-10T10:05:45.341Z,156.66
2023-05-10T10:06:45.337Z,155.40
2023-05-10T10:07:45.369Z,151.83
2023-05-10T10:08:45.396Z,159.14
2023-05-10T10:09:45.469Z,120.19
2023-05-10T10:10:46.203Z,111.85
2023-05-10T10:11:45.533Z,88.24
2023-05-10T10:12:45.595Z,83.84
2023-05-10T10:13:45.524Z,81.73
2023-05-10T10:14:45.533Z,77.60
2023-05-10T10:15:45.874Z,77.29
2023-05-10T10:16:59.616Z,74.32
2023-05-10T10:17:46.638Z,74.50
2023-05-10T10:18:45.593Z,76.06
2023-05-10T10:19:45.594Z,81.78
2023-05-10T10:20:45.787Z,98.98
2023-05-10T10:21:45.598Z,112.37
2023-05-10T10:22:45.587Z,123.47
2023-05-10T10:23:45.557Z,130.37
2023-05-10T10:24:45.558Z,131.99
2023-05-10T10:25:45.583Z,123.20
2023-05-10T10:26:45.525Z,124.11
2023-05-10T10:27:45.587Z,98.78
2023-05-10T10:28:45.518Z,100.93
2023-05-10T10:29:45.523Z,91.31
2023-05-10T10:30:45.536Z,79.10
2023-05-10T10:31:45.651Z,77.00
2023-05-10T10:32:45.564Z,76.61
2023-05-10T10:33:48.114Z,77.11
2023-05-10T10:34:45.463Z,79.49
2023-05-10T10:35:45.787Z,80.45
2023-05-10T10:36:45.836Z,79.58
2023-05-10T10:37:45.502Z,77.46
2023-05-10T10:38:45.447Z,73.69
2023-05-10T10:39:45.444Z,77.26
2023-05-10T10:40:45.440Z,80.42
2023-05-10T10:41:45.434Z,76.87
2023-05-10T10:42:45.416Z,76.46
2023-05-10T10:43:45.407Z,72.37
2023-05-10T10:44:45.406Z,68.63
2023-05-10T10:45:45.394Z,67.84
2023-05-10T10:46:45.437Z,63.40
2023-05-10T10:47:45.464Z,62.12
2023-05-10T10:48:45.365Z,62.13
2023-05-10T10:49:45.385Z,67.91
2023-05-10T10:50:45.363Z,64.73
2023-05-10T10:51:45.354Z,63.60
2023-05-10T10:52:45.385Z,70.74
2023-05-10T10:53:45.373Z,73.92
2023-05-10T10:54:45.333Z,70.22
2023-05-10T10:55:45.326Z,64.44
2023-05-10T10:56:45.333Z,62.95
2023-05-10T10:57:45.305Z,57.80
2023-05-10T10:58:45.332Z,60.48
2023-05-10T10:59:45.313Z,59.90
2023-05-10T11:00:45.303Z,63.97
2023-05-10T11:01:45.301Z,62.27
2023-05-10T11:02:45.339Z,65.07
2023-05-10T11:03:45.274Z,67.84
2023-05-10T11:04:45.300Z,64.00
2023-05-10T11:05:45.264Z,64.82
2023-05-10T11:06:45.234Z,63.64
2023-05-10T11:07:45.238Z,59.04
2023-05-10T11:08:45.241Z,59.86
2023-05-10T11:09:45.211Z,52.49
2023-05-10T11:10:45.247Z,56.28
2023-05-10T11:11:45.214Z,53.23
2023-05-10T11:12:45.198Z,43.16
2023-05-10T11:13:45.498Z,52.05
2023-05-10T11:14:45.215Z,54.83
2023-05-10T11:15:45.184Z,54.21
2023-05-10T11:16:45.316Z,54.91
2023-05-10T11:17:45.211Z,54.57
2023-05-10T11:18:45.241Z,70.60
2023-05-10T11:19:45.150Z,67.95
2023-05-10T11:20:45.138Z,83.52
2023-05-10T11:21:45.157Z,107.41
2023-05-10T11:22:45.144Z,127.49
2023-05-10T11:23:45.130Z,130.67
2023-05-10T11:24:45.116Z,138.66
2023-05-10T11:25:45.133Z,139.20
2023-05-10T11:26:45.112Z,138.56
2023-05-10T11:27:45.104Z,140.14
2023-05-10T11:28:45.078Z,144.11
2023-05-10T11:29:45.085Z,106.50
2023-05-10T11:30:45.084Z,76.99
2023-05-10T11:31:45.083Z,61.13
2023-05-10T11:32:45.101Z,51.70
2023-05-10T11:33:45.065Z,41.22
2023-05-10T11:34:45.048Z,33.06
2023-05-10T11:35:45.053Z,25.40
2023-05-10T11:36:45.038Z,25.77
2023-05-10T11:37:45.008Z,27.25
2023-05-10T11:38:45.030Z,40.49
2023-05-10T11:39:44.994Z,45.14
2023-05-10T11:40:45.007Z,55.05
2023-05-10T11:41:45.006Z,60.95
2023-05-10T11:42:45.108Z,67.14
2023-05-10T11:43:45.090Z,70.97
2023-05-10T11:44:45.052Z,76.53
2023-05-10T11:45:45.123Z,78.46
2023-05-10T11:46:45.208Z,76.44
2023-05-10T11:47:45.223Z,76.73
2023-05-10T11:48:45.227Z,80.99
2023-05-10T11:49:45.242Z,82.31
2023-05-10T11:50:45.277Z,84.35
2023-05-10T11:51:45.310Z,86.49
2023-05-10T11:52:45.327Z,86.63
2023-05-10T11:53:45.318Z,88.77
2023-05-10T11:54:45.345Z,88.71
2023-05-10T11:55:45.360Z,88.16
2023-05-10T11:56:45.381Z,87.99
2023-05-10T11:57:45.365Z,89.45
2023-05-10T11:58:45.383Z,87.96
2023-05-10T11:59:45.393Z,87.99
2023-05-10T12:00:45.500Z,87.69
2023-05-10T12:01:45.393Z,87.26
2023-05-10T12:02:45.457Z,88.05
2023-05-10T12:03:45.566Z,86.81
2023-05-10T12:04:45.479Z,87.71
2023-05-10T12:05:45.402Z,87.42
2023-05-10T12:06:45.806Z,85.28
2023-05-10T12:07:45.397Z,84.63
2023-05-10T12:08:45.407Z,81.23
2023-05-10T12:09:45.400Z,82.32
2023-05-10T12:10:45.399Z,81.10
2023-05-10T12:11:45.822Z,81.86
2023-05-10T12:12:45.403Z,81.49
2023-05-10T12:13:45.389Z,80.69
2023-05-10T12:14:45.405Z,79.06
2023-05-10T12:15:45.404Z,78.52
2023-05-10T12:16:46.101Z,77.58
2023-05-10T12:17:45.467Z,79.78
2023-05-10T12:18:45.488Z,81.45
2023-05-10T12:19:45.410Z,81.12
2023-05-10T12:20:45.402Z,80.64
2023-05-10T12:21:45.407Z,81.00
2023-05-10T12:22:45.393Z,80.73
2023-05-10T12:23:45.419Z,79.00
2023-05-10T12:24:45.405Z,82.23
2023-05-10T12:25:45.412Z,82.85
2023-05-10T12:26:45.521Z,83.68
2023-05-10T12:27:45.426Z,85.66
2023-05-10T12:28:45.424Z,85.10
2023-05-10T12:29:45.470Z,85.40
2023-05-10T12:30:45.422Z,85.43
2023-05-10T12:31:45.461Z,87.24
2023-05-10T12:32:45.456Z,87.74